createdAt,value
2019-04-27T00:01:19.713Z,27.20
2019-04-27T00:03:06.020Z,26.60
2019-04-27T00:05:03.330Z,26.63
2019-04-27T00:06:43.011Z,25.17
2019-04-27T00:08:28.544Z,27.33
2019-04-27T00:10:08.760Z,25.77
2019-04-27T00:12:08.284Z,25.87
2019-04-27T00:13:43.948Z,24.97
2019-04-27T00:15:31.332Z,26.37
2019-04-27T00:17:15.104Z,26.07
2019-04-27T00:19:13.202Z,25.33
2019-04-27T00:20:56.573Z,24.93
2019-04-27T00:22:36.274Z,24.57
2019-04-27T00:24:11.054Z,26.37
2019-04-27T00:25:45.779Z,27.30
2019-04-27T00:27:20.894Z,26.07
2019-04-27T00:28:56.017Z,24.17
2019-04-27T00:30:33.349Z,26.07
2019-04-27T00:32:09.436Z,25.60
2019-04-27T00:33:44.483Z,24.63
2019-04-27T00:35:33.477Z,24.20
2019-04-27T00:37:34.062Z,25.73
2019-04-27T00:39:18.012Z,25.07
2019-04-27T00:41:03.041Z,25.13
2019-04-27T00:42:37.834Z,24.77
2019-04-27T00:44:13.526Z,25.27
2019-04-27T00:45:48.127Z,24.87
2019-04-27T00:47:23.858Z,25.03
2019-04-27T00:48:58.799Z,26.23
2019-04-27T00:50:33.922Z,24.43
2019-04-27T00:52:08.879Z,24.40
2019-04-27T00:53:43.762Z,25.10
2019-04-27T00:55:18.484Z,25.30
2019-04-27T00:57:22.859Z,24.40
2019-04-27T00:59:17.644Z,25.47
2019-04-27T01:01:23.837Z,26.03
2019-04-27T01:03:03.826Z,25.43
2019-04-27T01:04:38.978Z,23.73
2019-04-27T01:06:14.911Z,24.90
2019-04-27T01:07:51.216Z,25.40
2019-04-27T01:09:26.619Z,24.80
2019-04-27T01:11:02.926Z,25.33
2019-04-27T01:12:37.816Z,24.60
2019-04-27T01:14:12.921Z,24.00
2019-04-27T01:15:47.862Z,25.57
2019-04-27T01:17:22.863Z,24.27
2019-04-27T01:18:58.964Z,25.40
2019-04-27T01:20:34.037Z,24.47
2019-04-27T01:22:08.869Z,25.27
2019-04-27T01:23:43.619Z,24.93
2019-04-27T01:25:19.869Z,23.93
2019-04-27T01:27:16.850Z,23.53
2019-04-27T01:28:59.282Z,24.87
2019-04-27T01:30:49.005Z,24.30
2019-04-27T01:32:23.876Z,24.47
2019-04-27T01:33:59.005Z,24.17
2019-04-27T01:35:33.803Z,23.37
2019-04-27T01:37:09.417Z,23.97
2019-04-27T01:38:44.313Z,24.37
2019-04-27T01:40:19.403Z,25.27
2019-04-27T01:41:54.242Z,23.77
2019-04-27T01:43:30.240Z,24.20
2019-04-27T01:45:05.593Z,22.87
2019-04-27T01:46:40.301Z,23.40
2019-04-27T01:48:23.655Z,23.93
2019-04-27T01:49:51.582Z,24.37
2019-04-27T01:51:26.254Z,23.50
2019-04-27T01:53:00.965Z,23.57
2019-04-27T01:54:35.747Z,25.13
2019-04-27T01:56:10.748Z,25.00
2019-04-27T01:57:45.682Z,25.73
2019-04-27T01:59:21.711Z,25.00
2019-04-27T02:01:19.515Z,24.20
2019-04-27T02:02:57.006Z,24.27
2019-04-27T02:04:41.753Z,23.70
2019-04-27T02:06:16.784Z,23.67
2019-04-27T02:07:51.446Z,25.27
2019-04-27T02:09:26.178Z,24.30
2019-04-27T02:11:01.035Z,25.93
2019-04-27T02:12:35.994Z,24.20
2019-04-27T02:14:11.051Z,25.23
2019-04-27T02:15:45.765Z,24.13
2019-04-27T02:17:20.638Z,24.10
2019-04-27T02:18:55.590Z,24.27
2019-04-27T02:20:30.610Z,24.23
2019-04-27T02:22:05.580Z,25.00
2019-04-27T02:23:41.671Z,24.27
2019-04-27T02:25:19.241Z,24.13
2019-04-27T02:26:54.768Z,24.50
2019-04-27T02:28:36.912Z,23.83
2019-04-27T02:30:44.136Z,23.93
2019-04-27T02:32:40.727Z,23.87
2019-04-27T02:34:19.968Z,23.47
2019-04-27T02:35:54.700Z,23.37
2019-04-27T02:37:30.397Z,24.17
2019-04-27T02:39:09.278Z,22.80
2019-04-27T02:40:59.786Z,23.13
2019-04-27T02:42:42.228Z,23.03
2019-04-27T02:44:40.447Z,23.40
2019-04-27T02:46:16.379Z,23.00
2019-04-27T02:47:51.921Z,23.50
2019-04-27T02:49:26.758Z,23.20
2019-04-27T02:51:04.168Z,23.63
2019-04-27T02:52:49.808Z,24.10
2019-04-27T02:54:23.698Z,22.77
2019-04-27T02:56:00.237Z,22.57
2019-04-27T02:57:35.184Z,22.97
2019-04-27T02:59:11.992Z,22.83
2019-04-27T03:00:49.911Z,23.70
2019-04-27T03:02:30.038Z,22.50
2019-04-27T03:04:10.004Z,24.27
2019-04-27T03:05:44.831Z,22.17
2019-04-27T03:07:20.211Z,22.80
2019-04-27T03:08:55.117Z,23.27
2019-04-27T03:10:31.785Z,23.53
2019-04-27T03:12:06.893Z,23.50
2019-04-27T03:13:51.957Z,22.57
2019-04-27T03:16:01.058Z,22.17
2019-04-27T03:17:55.066Z,22.60
2019-04-27T03:19:45.043Z,22.80
2019-04-27T03:21:26.503Z,22.73
2019-04-27T03:23:03.889Z,21.73
2019-04-27T03:24:56.299Z,23.40
2019-04-27T03:26:41.969Z,22.93
2019-04-27T03:28:19.633Z,22.67
2019-04-27T03:29:53.714Z,22.70
2019-04-27T03:31:32.346Z,22.63
2019-04-27T03:33:04.830Z,21.73
2019-04-27T03:34:41.803Z,22.23
2019-04-27T03:36:16.022Z,22.90
2019-04-27T03:37:50.971Z,20.40
2019-04-27T03:39:25.704Z,22.83
2019-04-27T03:41:00.715Z,21.70
2019-04-27T03:42:37.929Z,21.60
2019-04-27T03:44:13.295Z,22.10
2019-04-27T03:45:51.854Z,21.73
2019-04-27T03:47:24.685Z,21.97
2019-04-27T03:49:00.078Z,21.77
2019-04-27T03:50:44.029Z,21.87
2019-04-27T03:52:32.311Z,20.60
2019-04-27T03:54:24.865Z,21.10
2019-04-27T03:56:13.367Z,20.97
2019-04-27T03:57:54.896Z,21.20
2019-04-27T03:59:51.912Z,21.23
2019-04-27T04:01:26.847Z,22.30
2019-04-27T04:03:03.234Z,20.47
2019-04-27T04:04:40.538Z,19.97
2019-04-27T04:06:15.981Z,20.00
2019-04-27T04:07:52.127Z,21.40
2019-04-27T04:09:40.380Z,20.80
2019-04-27T04:11:25.598Z,21.30
2019-04-27T04:13:10.667Z,19.73
2019-04-27T04:14:44.748Z,20.73
2019-04-27T04:16:29.692Z,20.07
2019-04-27T04:18:04.474Z,19.83
2019-04-27T04:19:51.317Z,19.63
2019-04-27T04:21:15.518Z,19.47
2019-04-27T04:22:51.463Z,19.90
2019-04-27T04:24:28.550Z,19.13
2019-04-27T04:26:02.687Z,19.33
2019-04-27T04:27:40.129Z,19.90
2019-04-27T04:29:14.191Z,20.40
2019-04-27T04:30:50.201Z,19.60
2019-04-27T04:32:26.336Z,19.03
2019-04-27T04:34:02.464Z,18.37
2019-04-27T04:35:39.542Z,18.10
2019-04-27T04:37:13.455Z,18.57
2019-04-27T04:38:50.426Z,18.53
2019-04-27T04:40:36.186Z,17.17
2019-04-27T04:42:22.138Z,17.23
2019-04-27T04:44:05.438Z,18.77
2019-04-27T04:45:50.119Z,16.40
2019-04-27T04:47:49.803Z,17.10
2019-04-27T04:49:24.491Z,17.00
2019-04-27T04:51:00.247Z,17.07
2019-04-27T04:52:34.998Z,17.27
2019-04-27T04:54:09.780Z,18.77
2019-04-27T04:55:44.785Z,17.10
2019-04-27T04:57:21.925Z,16.67
2019-04-27T04:59:00.003Z,16.77
2019-04-27T05:00:34.846Z,16.80
2019-04-27T05:02:10.761Z,17.20
2019-04-27T05:03:45.913Z,16.47
2019-04-27T05:05:20.548Z,16.37
2019-04-27T05:06:55.204Z,15.73
2019-04-27T05:08:29.908Z,16.47
2019-04-27T05:10:05.544Z,15.50
2019-04-27T05:11:40.668Z,16.47
2019-04-27T05:13:15.608Z,16.30
2019-04-27T05:14:50.569Z,16.17
2019-04-27T05:16:26.695Z,15.77
2019-04-27T05:18:01.691Z,15.13
2019-04-27T05:19:38.975Z,15.50
2019-04-27T05:21:24.488Z,16.03
2019-04-27T05:22:59.520Z,14.60
2019-04-27T05:24:34.242Z,15.07
2019-04-27T05:26:09.244Z,16.57
2019-04-27T05:27:44.010Z,15.67
2019-04-27T05:29:19.233Z,15.43
2019-04-27T05:30:53.998Z,15.17
2019-04-27T05:32:29.241Z,14.57
2019-04-27T05:34:06.690Z,15.10
2019-04-27T05:35:41.034Z,14.40
2019-04-27T05:37:15.849Z,14.20
2019-04-27T05:38:50.543Z,13.30
2019-04-27T05:40:25.550Z,13.70
2019-04-27T05:42:00.294Z,13.50
2019-04-27T05:43:41.672Z,12.63
2019-04-27T05:45:48.757Z,12.47
2019-04-27T05:47:32.905Z,12.57
2019-04-27T05:49:09.676Z,12.23
2019-04-27T05:50:46.009Z,11.37
2019-04-27T05:52:30.219Z,11.43
2019-04-27T05:54:05.110Z,11.57
2019-04-27T05:55:39.822Z,11.37
2019-04-27T05:57:14.517Z,10.60
2019-04-27T05:58:51.269Z,11.13
2019-04-27T06:00:26.193Z,10.60
2019-04-27T06:02:01.145Z,10.53
2019-04-27T06:03:37.011Z,11.40
2019-04-27T06:05:12.729Z,9.83
2019-04-27T06:06:47.374Z,10.13
2019-04-27T06:08:22.050Z,10.30
2019-04-27T06:09:56.710Z,10.30
2019-04-27T06:11:31.498Z,10.53
2019-04-27T06:13:06.446Z,10.77
2019-04-27T06:14:41.353Z,9.93
2019-04-27T06:16:16.256Z,9.90
2019-04-27T06:17:51.145Z,9.43
2019-04-27T06:19:26.030Z,9.80
2019-04-27T06:21:01.944Z,9.20
2019-04-27T06:22:38.887Z,9.80
2019-04-27T06:24:13.294Z,10.07
2019-04-27T06:25:49.198Z,9.17
2019-04-27T06:27:24.320Z,9.20
2019-04-27T06:28:59.566Z,9.07
2019-04-27T06:30:34.422Z,9.07
2019-04-27T06:32:10.850Z,8.30
2019-04-27T06:33:45.675Z,8.70
2019-04-27T06:35:20.495Z,9.17
2019-04-27T06:36:55.124Z,8.60
2019-04-27T06:38:29.812Z,8.23
2019-04-27T06:40:05.754Z,7.83
2019-04-27T06:41:40.612Z,8.37
2019-04-27T06:43:16.536Z,8.03
2019-04-27T06:44:51.502Z,8.10
2019-04-27T06:46:26.604Z,8.10
2019-04-27T06:48:01.273Z,8.47
2019-04-27T06:49:37.434Z,8.30
2019-04-27T06:51:12.237Z,7.80
2019-04-27T06:52:46.965Z,8.40
2019-04-27T06:54:22.936Z,6.97
2019-04-27T06:55:58.591Z,7.43
2019-04-27T06:57:33.774Z,6.90
2019-04-27T06:59:08.879Z,7.97
2019-04-27T07:00:43.913Z,8.10
2019-04-27T07:02:20.106Z,7.97
2019-04-27T07:03:55.167Z,7.50
2019-04-27T07:05:29.807Z,7.40
2019-04-27T07:07:04.554Z,7.63
2019-04-27T07:08:40.078Z,7.60
2019-04-27T07:10:16.422Z,8.00
2019-04-27T07:11:51.443Z,7.00
2019-04-27T07:13:26.318Z,7.43
2019-04-27T07:15:01.189Z,7.40
2019-04-27T07:16:39.197Z,6.73
2019-04-27T07:18:14.290Z,6.67
2019-04-27T07:19:49.740Z,6.53
2019-04-27T07:21:24.965Z,6.00
2019-04-27T07:22:59.899Z,6.63
2019-04-27T07:24:34.731Z,5.87
2019-04-27T07:26:09.433Z,6.10
2019-04-27T07:27:45.907Z,6.30
2019-04-27T07:29:23.124Z,6.47
2019-04-27T07:30:58.641Z,6.37
2019-04-27T07:32:34.701Z,6.23
2019-04-27T07:34:10.939Z,6.17
2019-04-27T07:35:46.236Z,5.93
2019-04-27T07:37:23.707Z,6.70
2019-04-27T07:39:00.068Z,5.97
2019-04-27T07:40:34.994Z,5.73
2019-04-27T07:42:09.712Z,5.63
2019-04-27T07:43:50.109Z,6.23
2019-04-27T07:45:29.511Z,5.50
2019-04-27T07:47:36.788Z,5.60
2019-04-27T07:49:13.273Z,4.77
2019-04-27T07:50:48.650Z,5.40
2019-04-27T07:52:24.789Z,5.67
2019-04-27T07:53:59.436Z,5.07
2019-04-27T07:55:34.204Z,4.47
2019-04-27T07:57:11.283Z,4.63
2019-04-27T07:58:49.473Z,4.90
2019-04-27T08:00:24.602Z,4.10
2019-04-27T08:02:00.700Z,4.37
2019-04-27T08:03:36.809Z,3.80
2019-04-27T08:05:13.573Z,3.77
2019-04-27T08:06:49.616Z,4.00
2019-04-27T08:08:24.363Z,5.07
2019-04-27T08:10:01.654Z,4.23
2019-04-27T08:11:36.395Z,4.03
2019-04-27T08:13:11.320Z,4.60
2019-04-27T08:14:46.388Z,4.27
2019-04-27T08:16:23.657Z,5.10
2019-04-27T08:17:59.249Z,4.77
2019-04-27T08:19:34.463Z,5.17
2019-04-27T08:21:10.584Z,5.10
2019-04-27T08:22:45.468Z,4.60
2019-04-27T08:24:20.108Z,4.53
2019-04-27T08:25:55.082Z,4.13
2019-04-27T08:27:51.656Z,4.47
2019-04-27T08:29:50.799Z,4.20
2019-04-27T08:31:34.117Z,3.97
2019-04-27T08:33:09.871Z,4.80
2019-04-27T08:34:44.598Z,3.90
2019-04-27T08:36:20.892Z,3.40
2019-04-27T08:37:55.541Z,3.47
2019-04-27T08:39:30.228Z,3.07
2019-04-27T08:41:04.975Z,3.23
2019-04-27T08:42:39.676Z,3.50
2019-04-27T08:44:14.340Z,3.73
2019-04-27T08:45:49.005Z,3.43
2019-04-27T08:47:23.641Z,3.00
2019-04-27T08:48:58.754Z,3.23
2019-04-27T08:50:33.489Z,3.23
2019-04-27T08:52:09.398Z,3.27
2019-04-27T08:53:44.200Z,3.70
2019-04-27T08:55:19.628Z,3.53
2019-04-27T08:56:54.326Z,3.67
2019-04-27T08:58:28.968Z,3.47
2019-04-27T09:00:04.001Z,3.63
2019-04-27T09:01:40.337Z,4.10
2019-04-27T09:03:14.999Z,3.93
2019-04-27T09:04:49.733Z,3.47
2019-04-27T09:06:24.389Z,3.93
2019-04-27T09:08:22.354Z,3.83
2019-04-27T09:10:04.556Z,3.30
2019-04-27T09:12:10.362Z,3.43
2019-04-27T09:13:59.710Z,4.23
2019-04-27T09:15:39.503Z,3.33
2019-04-27T09:17:24.359Z,3.57
2019-04-27T09:19:03.226Z,3.47
2019-04-27T09:20:41.143Z,3.60
2019-04-27T09:22:16.716Z,3.20
2019-04-27T09:23:51.514Z,3.00
2019-04-27T09:25:26.180Z,2.77
2019-04-27T09:27:01.315Z,2.53
2019-04-27T09:28:35.950Z,3.07
2019-04-27T09:30:10.747Z,2.90
2019-04-27T09:31:45.388Z,2.53
2019-04-27T09:33:22.237Z,2.53
2019-04-27T09:34:56.936Z,2.20
2019-04-27T09:36:31.731Z,1.93
2019-04-27T09:38:07.098Z,2.17
2019-04-27T09:39:43.065Z,2.60
2019-04-27T09:41:17.732Z,3.10
2019-04-27T09:42:52.371Z,2.83
2019-04-27T09:44:27.003Z,4.50
2019-04-27T09:46:01.671Z,3.27
2019-04-27T09:47:36.856Z,2.63
2019-04-27T09:49:12.817Z,2.50
2019-04-27T09:50:47.448Z,1.77
2019-04-27T09:52:26.285Z,1.87
2019-04-27T09:53:58.413Z,2.00
2019-04-27T09:55:33.054Z,1.70
2019-04-27T09:57:07.685Z,1.70
2019-04-27T09:58:43.424Z,1.57
2019-04-27T10:00:18.579Z,1.70
2019-04-27T10:01:53.380Z,2.00
2019-04-27T10:03:28.043Z,2.10
2019-04-27T10:05:02.661Z,2.40
2019-04-27T10:06:37.978Z,2.00
2019-04-27T10:08:12.787Z,2.00
2019-04-27T10:09:47.643Z,1.70
2019-04-27T10:11:24.045Z,1.50
2019-04-27T10:12:58.698Z,1.83
2019-04-27T10:14:33.358Z,2.00
2019-04-27T10:16:08.052Z,1.90
2019-04-27T10:17:43.077Z,1.90
2019-04-27T10:19:28.130Z,1.73
2019-04-27T10:20:59.694Z,1.53
2019-04-27T10:22:40.464Z,1.40
2019-04-27T10:24:06.908Z,1.30
2019-04-27T10:25:41.592Z,1.70
2019-04-27T10:27:16.301Z,1.47
2019-04-27T10:28:50.970Z,1.30
2019-04-27T10:30:25.857Z,1.17
2019-04-27T10:32:00.496Z,1.33
2019-04-27T10:33:36.765Z,1.30
2019-04-27T10:35:11.785Z,1.20
2019-04-27T10:36:46.410Z,1.10
2019-04-27T10:38:21.095Z,1.13
2019-04-27T10:39:56.082Z,0.90
2019-04-27T10:41:30.899Z,1.07
2019-04-27T10:43:06.342Z,1.20
2019-04-27T10:44:41.082Z,1.03
2019-04-27T10:46:15.744Z,1.13
2019-04-27T10:47:51.313Z,1.13
2019-04-27T10:49:25.964Z,1.00
2019-04-27T10:51:00.620Z,1.10
2019-04-27T10:52:35.322Z,1.23
2019-04-27T10:54:10.366Z,1.40
2019-04-27T10:55:46.429Z,1.60
2019-04-27T10:57:21.242Z,1.43
2019-04-27T10:58:55.911Z,1.30
2019-04-27T11:00:36.780Z,1.30
2019-04-27T11:02:11.668Z,1.40
2019-04-27T11:03:58.325Z,1.50
2019-04-27T11:05:39.292Z,1.53
2019-04-27T11:07:15.962Z,1.60
2019-04-27T11:08:51.957Z,1.30
2019-04-27T11:10:26.697Z,1.40
2019-04-27T11:12:01.416Z,1.60
2019-04-27T11:13:38.283Z,1.40
2019-04-27T11:15:13.119Z,1.60
2019-04-27T11:16:48.022Z,1.80
2019-04-27T11:18:22.668Z,1.87
2019-04-27T11:19:57.331Z,1.70
2019-04-27T11:21:32.123Z,1.87
2019-04-27T11:23:12.016Z,2.00
2019-04-27T11:24:45.813Z,1.67
2019-04-27T11:26:20.616Z,1.90
2019-04-27T11:27:55.946Z,1.93
2019-04-27T11:29:31.693Z,1.70
2019-04-27T11:31:07.231Z,2.03
2019-04-27T11:32:41.949Z,1.97
2019-04-27T11:34:16.854Z,1.90
2019-04-27T11:35:57.967Z,1.70
2019-04-27T11:37:35.680Z,1.80
2019-04-27T11:39:13.028Z,1.90
2019-04-27T11:40:47.742Z,1.80
2019-04-27T11:42:22.406Z,1.80
2019-04-27T11:43:57.033Z,1.77
2019-04-27T11:45:31.754Z,1.40
2019-04-27T11:47:06.424Z,1.30
2019-04-27T11:48:41.143Z,1.50
2019-04-27T11:50:17.439Z,1.20
2019-04-27T11:51:52.168Z,1.30
2019-04-27T11:53:26.822Z,1.30
2019-04-27T11:55:01.469Z,1.47
2019-04-27T11:56:36.389Z,1.23
2019-04-27T11:58:11.077Z,1.30
2019-04-27T11:59:45.713Z,1.47
2019-04-27T12:01:20.443Z,1.30
2019-04-27T12:02:56.750Z,1.10
2019-04-27T12:04:31.474Z,1.33
2019-04-27T12:06:06.174Z,1.50
2019-04-27T12:07:40.877Z,1.93
2019-04-27T12:09:15.547Z,1.80
2019-04-27T12:10:50.197Z,1.73
2019-04-27T12:12:26.213Z,1.87
2019-04-27T12:14:01.014Z,2.47
2019-04-27T12:15:36.213Z,1.87
2019-04-27T12:17:11.034Z,1.87
2019-04-27T12:18:48.871Z,1.60
2019-04-27T12:20:22.762Z,2.13
2019-04-27T12:21:57.505Z,1.90
2019-04-27T12:23:35.628Z,2.23
2019-04-27T12:25:09.038Z,2.07
2019-04-27T12:27:02.642Z,2.20
2019-04-27T12:28:43.335Z,2.33
2019-04-27T12:30:26.146Z,2.30
2019-04-27T12:32:05.623Z,2.23
2019-04-27T12:33:40.505Z,2.77
2019-04-27T12:35:16.666Z,2.70
2019-04-27T12:36:53.374Z,2.70
2019-04-27T12:38:29.309Z,2.77
2019-04-27T12:40:05.935Z,2.20
2019-04-27T12:41:40.755Z,2.60
2019-04-27T12:43:16.484Z,2.80
2019-04-27T12:44:51.178Z,2.70
2019-04-27T12:46:25.929Z,2.93
2019-04-27T12:48:00.649Z,2.70
2019-04-27T12:49:36.225Z,2.20
2019-04-27T12:51:11.101Z,2.87
2019-04-27T12:52:47.665Z,1.83
2019-04-27T12:54:31.582Z,2.40
2019-04-27T12:56:12.964Z,2.57
2019-04-27T12:57:57.118Z,2.30
2019-04-27T13:00:06.827Z,2.53
2019-04-27T13:01:41.465Z,2.87
2019-04-27T13:03:16.178Z,2.70
2019-04-27T13:04:50.770Z,2.40
2019-04-27T13:06:26.274Z,2.50
2019-04-27T13:08:00.933Z,2.60
2019-04-27T13:09:36.060Z,2.57
2019-04-27T13:11:10.764Z,2.43
2019-04-27T13:12:46.109Z,2.30
2019-04-27T13:14:20.998Z,1.57
2019-04-27T13:15:56.340Z,1.37
2019-04-27T13:17:32.227Z,1.67
2019-04-27T13:19:07.050Z,1.30
2019-04-27T13:20:41.683Z,1.23
2019-04-27T13:22:16.621Z,1.33
2019-04-27T13:24:03.668Z,1.07
2019-04-27T13:25:27.919Z,0.70
2019-04-27T13:27:02.633Z,0.87
2019-04-27T13:28:37.272Z,0.77
2019-04-27T13:30:12.617Z,1.00
2019-04-27T13:31:47.505Z,0.80
2019-04-27T13:33:22.154Z,0.90
2019-04-27T13:34:56.845Z,1.00
2019-04-27T13:36:33.146Z,0.90
2019-04-27T13:38:08.809Z,1.00
2019-04-27T13:39:43.528Z,0.67
2019-04-27T13:41:27.851Z,0.90
2019-04-27T13:43:07.597Z,0.80
2019-04-27T13:44:41.939Z,0.80
2019-04-27T13:46:34.655Z,1.10
2019-04-27T13:48:43.726Z,0.90
2019-04-27T13:50:23.825Z,0.80
2019-04-27T13:52:02.437Z,0.70
2019-04-27T13:53:37.109Z,0.70
2019-04-27T13:55:11.830Z,0.77
2019-04-27T13:56:47.673Z,0.50
2019-04-27T13:58:22.446Z,0.50
2019-04-27T13:59:57.083Z,0.77
2019-04-27T14:01:31.913Z,0.60
2019-04-27T14:03:06.694Z,0.60
2019-04-27T14:04:41.347Z,0.70
2019-04-27T14:06:15.996Z,0.77
2019-04-27T14:07:50.635Z,0.80
2019-04-27T14:09:25.291Z,0.67
2019-04-27T14:11:01.200Z,0.70
2019-04-27T14:12:36.073Z,0.60
2019-04-27T14:14:10.791Z,0.60
2019-04-27T14:15:45.448Z,0.80
2019-04-27T14:17:20.190Z,0.50
2019-04-27T14:18:54.875Z,0.80
2019-04-27T14:20:29.514Z,0.70
2019-04-27T14:22:04.246Z,0.80
2019-04-27T14:23:38.911Z,0.70
2019-04-27T14:25:13.756Z,0.70
2019-04-27T14:26:48.668Z,0.60
2019-04-27T14:28:23.348Z,0.57
2019-04-27T14:29:59.539Z,0.60
2019-04-27T14:31:34.433Z,0.60
2019-04-27T14:33:09.174Z,0.57
2019-04-27T14:34:43.817Z,0.60
2019-04-27T14:36:18.460Z,0.60
2019-04-27T14:37:53.122Z,0.90
2019-04-27T14:39:28.579Z,0.80
2019-04-27T14:41:03.748Z,0.80
2019-04-27T14:42:38.404Z,0.50
2019-04-27T14:44:13.078Z,0.60
2019-04-27T14:45:48.567Z,0.60
2019-04-27T14:47:23.276Z,0.70
2019-04-27T14:48:57.982Z,0.70
2019-04-27T14:50:32.679Z,0.70
2019-04-27T14:52:07.396Z,0.70
2019-04-27T14:53:42.081Z,0.93
2019-04-27T14:55:16.724Z,0.60
2019-04-27T14:56:51.383Z,0.70
2019-04-27T14:58:26.039Z,0.90
2019-04-27T15:00:01.047Z,0.63
2019-04-27T15:01:37.589Z,1.00
2019-04-27T15:03:12.132Z,0.80
2019-04-27T15:04:47.327Z,0.67
2019-04-27T15:06:22.156Z,0.90
2019-04-27T15:07:56.877Z,1.00
2019-04-27T15:09:31.525Z,1.00
2019-04-27T15:11:10.573Z,1.07
2019-04-27T15:12:42.552Z,0.90
2019-04-27T15:14:20.659Z,1.10
2019-04-27T15:15:53.570Z,1.00
2019-04-27T15:17:29.554Z,1.03
2019-04-27T15:19:08.269Z,1.10
2019-04-27T15:20:46.307Z,1.10
2019-04-27T15:22:25.105Z,1.30
2019-04-27T15:24:02.440Z,1.60
2019-04-27T15:25:43.601Z,1.77
2019-04-27T15:27:14.334Z,1.30
2019-04-27T15:28:51.186Z,1.30
2019-04-27T15:30:57.117Z,1.23
2019-04-27T15:32:43.971Z,1.10
2019-04-27T15:34:48.225Z,1.47
2019-04-27T15:36:39.496Z,1.27
2019-04-27T15:38:18.776Z,1.33
2019-04-27T15:40:24.866Z,1.30
2019-04-27T15:42:07.860Z,1.60
2019-04-27T15:43:38.845Z,1.67
2019-04-27T15:45:15.971Z,1.70
2019-04-27T15:46:51.197Z,1.37
2019-04-27T15:48:30.655Z,1.50
2019-04-27T15:50:02.224Z,1.87
2019-04-27T15:51:38.246Z,1.67
2019-04-27T15:53:14.069Z,1.60
2019-04-27T15:54:48.827Z,1.50
2019-04-27T15:56:23.489Z,1.90
2019-04-27T15:57:58.137Z,2.10
2019-04-27T15:59:37.723Z,1.63
2019-04-27T16:01:11.938Z,1.70
2019-04-27T16:02:49.348Z,1.53
2019-04-27T16:04:24.689Z,1.97
2019-04-27T16:06:03.177Z,1.80
2019-04-27T16:07:35.889Z,2.23
2019-04-27T16:09:15.995Z,2.00
2019-04-27T16:10:50.260Z,1.90
2019-04-27T16:12:24.916Z,2.10
2019-04-27T16:14:02.996Z,1.90
2019-04-27T16:15:35.965Z,1.80
2019-04-27T16:17:11.630Z,1.90
2019-04-27T16:18:46.361Z,2.10
2019-04-27T16:20:29.254Z,2.07
2019-04-27T16:21:59.139Z,1.80
2019-04-27T16:23:40.082Z,1.60
2019-04-27T16:25:10.250Z,2.00
2019-04-27T16:26:46.359Z,2.03
2019-04-27T16:28:21.310Z,1.80
2019-04-27T16:29:55.970Z,1.53
2019-04-27T16:31:32.883Z,1.83
2019-04-27T16:33:08.622Z,2.00
2019-04-27T16:34:44.733Z,2.20
2019-04-27T16:36:20.436Z,1.80
2019-04-27T16:38:14.126Z,1.80
2019-04-27T16:39:49.555Z,1.60
2019-04-27T16:41:24.263Z,1.80
2019-04-27T16:42:58.998Z,1.80
2019-04-27T16:44:33.647Z,2.00
2019-04-27T16:46:08.905Z,1.70
2019-04-27T16:47:44.003Z,1.93
2019-04-27T16:49:18.832Z,2.07
2019-04-27T16:50:55.210Z,2.03
2019-04-27T16:52:30.029Z,2.30
2019-04-27T16:54:04.745Z,2.03
2019-04-27T16:55:39.404Z,2.10
2019-04-27T16:57:14.057Z,1.90
2019-04-27T16:58:56.282Z,1.80
2019-04-27T17:00:26.576Z,2.10
2019-04-27T17:02:01.712Z,2.73
2019-04-27T17:03:36.651Z,2.17
2019-04-27T17:05:11.538Z,2.37
2019-04-27T17:06:46.430Z,2.00
2019-04-27T17:08:26.347Z,2.43
2019-04-27T17:09:59.501Z,2.20
2019-04-27T17:11:34.364Z,2.40
2019-04-27T17:13:14.310Z,2.60
2019-04-27T17:15:18.990Z,2.10
2019-04-27T17:17:08.106Z,2.67
2019-04-27T17:18:52.795Z,2.37
2019-04-27T17:20:28.051Z,2.13
2019-04-27T17:22:03.128Z,2.10
2019-04-27T17:23:38.843Z,2.37
2019-04-27T17:25:15.367Z,2.50
2019-04-27T17:26:50.009Z,2.50
2019-04-27T17:28:25.692Z,2.10
2019-04-27T17:30:01.558Z,2.67
2019-04-27T17:31:38.993Z,2.53
2019-04-27T17:33:21.168Z,2.83
2019-04-27T17:35:02.076Z,3.20
2019-04-27T17:36:32.260Z,2.70
2019-04-27T17:38:10.473Z,2.40
2019-04-27T17:39:43.401Z,2.97
2019-04-27T17:41:18.435Z,2.83
2019-04-27T17:42:53.151Z,2.90
2019-04-27T17:44:28.807Z,2.63
2019-04-27T17:46:07.370Z,2.60
2019-04-27T17:47:40.068Z,2.47
2019-04-27T17:49:14.697Z,2.93
2019-04-27T17:50:49.361Z,3.00
2019-04-27T17:52:24.005Z,2.63
2019-04-27T17:53:58.781Z,2.77
2019-04-27T17:55:33.471Z,3.00
2019-04-27T17:57:10.362Z,3.10
2019-04-27T17:58:44.541Z,2.90
2019-04-27T18:00:19.697Z,2.90
2019-04-27T18:02:00.841Z,3.07
2019-04-27T18:03:30.909Z,3.03
2019-04-27T18:05:09.599Z,3.20
2019-04-27T18:06:42.718Z,2.87
2019-04-27T18:08:21.215Z,3.10
2019-04-27T18:09:53.862Z,2.80
2019-04-27T18:11:28.889Z,2.73
2019-04-27T18:13:03.612Z,3.33
2019-04-27T18:14:41.192Z,2.97
2019-04-27T18:16:14.610Z,2.60
2019-04-27T18:17:52.198Z,3.30
2019-04-27T18:19:44.168Z,3.40
2019-04-27T18:21:19.710Z,3.10
2019-04-27T18:23:00.340Z,2.63
2019-04-27T18:24:45.447Z,3.07
2019-04-27T18:26:30.662Z,3.10
2019-04-27T18:28:26.042Z,2.43
2019-04-27T18:30:28.854Z,3.10
2019-04-27T18:32:03.555Z,3.23
2019-04-27T18:33:38.333Z,2.40
2019-04-27T18:35:13.084Z,2.70
2019-04-27T18:36:47.733Z,2.97
2019-04-27T18:38:22.375Z,2.63
2019-04-27T18:39:58.458Z,2.70
2019-04-27T18:41:33.288Z,2.77
2019-04-27T18:43:12.296Z,2.83
2019-04-27T18:44:44.400Z,3.07
2019-04-27T18:46:24.521Z,2.80
2019-04-27T18:48:01.098Z,2.77
2019-04-27T18:49:54.930Z,2.60
2019-04-27T18:51:38.413Z,2.50
2019-04-27T18:53:24.327Z,2.90
2019-04-27T18:54:59.147Z,2.33
2019-04-27T18:56:38.402Z,2.70
2019-04-27T18:58:10.305Z,2.60
2019-04-27T18:59:44.957Z,2.57
2019-04-27T19:01:19.685Z,2.90
2019-04-27T19:02:54.349Z,2.83
2019-04-27T19:04:29.007Z,3.10
2019-04-27T19:06:03.833Z,2.63
2019-04-27T19:07:38.543Z,2.57
2019-04-27T19:09:13.336Z,2.80
2019-04-27T19:10:48.237Z,2.70
2019-04-27T19:12:22.951Z,2.50
2019-04-27T19:13:59.028Z,2.53
2019-04-27T19:15:33.815Z,2.80
2019-04-27T19:17:08.474Z,2.57
2019-04-27T19:18:43.211Z,2.80
2019-04-27T19:20:18.662Z,2.63
2019-04-27T19:21:54.617Z,2.53
2019-04-27T19:23:29.637Z,2.60
2019-04-27T19:25:05.818Z,3.03
2019-04-27T19:26:48.561Z,2.80
2019-04-27T19:28:54.214Z,2.40
2019-04-27T19:30:33.300Z,2.93
2019-04-27T19:32:08.162Z,2.93
2019-04-27T19:33:42.858Z,3.50
2019-04-27T19:35:19.707Z,2.50
2019-04-27T19:36:53.847Z,2.90
2019-04-27T19:38:28.921Z,2.80
2019-04-27T19:40:03.850Z,2.63
2019-04-27T19:41:38.779Z,2.87
2019-04-27T19:43:13.519Z,2.80
2019-04-27T19:44:48.217Z,3.00
2019-04-27T19:46:22.907Z,2.90
2019-04-27T19:47:57.542Z,2.97
2019-04-27T19:49:32.336Z,2.50
2019-04-27T19:51:08.958Z,2.70
2019-04-27T19:52:43.378Z,3.23
2019-04-27T19:54:18.032Z,2.60
2019-04-27T19:56:03.018Z,2.83
2019-04-27T19:57:39.332Z,3.10
2019-04-27T19:59:19.892Z,2.43
2019-04-27T20:01:11.117Z,2.50
2019-04-27T20:02:38.022Z,2.80
2019-04-27T20:04:25.743Z,2.90
2019-04-27T20:06:00.416Z,2.93
2019-04-27T20:07:35.216Z,2.97
2019-04-27T20:09:19.133Z,3.50
2019-04-27T20:10:54.293Z,3.13
2019-04-27T20:12:31.152Z,3.60
2019-04-27T20:14:05.588Z,3.30
2019-04-27T20:15:40.686Z,3.80
2019-04-27T20:17:16.594Z,3.43
2019-04-27T20:18:52.312Z,3.70
2019-04-27T20:20:26.951Z,3.80
2019-04-27T20:22:01.622Z,4.00
2019-04-27T20:23:45.940Z,3.33
2019-04-27T20:25:21.548Z,3.80
2019-04-27T20:26:56.193Z,4.07
2019-04-27T20:28:31.455Z,3.67
2019-04-27T20:30:08.555Z,4.13
2019-04-27T20:31:44.360Z,4.13
2019-04-27T20:33:20.966Z,4.00
2019-04-27T20:34:55.417Z,3.87
2019-04-27T20:36:31.345Z,4.10
2019-04-27T20:38:06.109Z,4.40
2019-04-27T20:39:42.641Z,5.00
2019-04-27T20:41:17.134Z,4.53
2019-04-27T20:42:51.816Z,4.10
2019-04-27T20:44:26.767Z,4.13
2019-04-27T20:46:01.395Z,4.33
2019-04-27T20:47:36.039Z,4.57
2019-04-27T20:49:19.139Z,4.20
2019-04-27T20:50:53.765Z,4.60
2019-04-27T20:52:36.921Z,4.30
2019-04-27T20:54:11.696Z,4.43
2019-04-27T20:55:46.350Z,4.40
2019-04-27T20:57:21.948Z,4.93
2019-04-27T20:58:56.579Z,4.30
2019-04-27T21:00:32.310Z,4.80
2019-04-27T21:02:44.235Z,4.87
2019-04-27T21:04:21.988Z,5.47
2019-04-27T21:06:21.662Z,4.60
2019-04-27T21:08:01.416Z,5.33
2019-04-27T21:09:37.080Z,4.67
2019-04-27T21:11:11.932Z,5.20
2019-04-27T21:12:46.643Z,4.77
2019-04-27T21:14:21.753Z,5.23
2019-04-27T21:15:56.567Z,5.73
2019-04-27T21:17:31.212Z,5.37
2019-04-27T21:19:06.039Z,5.00
2019-04-27T21:20:41.294Z,5.37
2019-04-27T21:22:16.078Z,5.77
2019-04-27T21:23:51.535Z,4.73
2019-04-27T21:25:26.325Z,5.20